ダカール の空港の天気 - METARとTAF

レオポール・セダール・サンゴール国際空港 ( GOOY / DKR ) - セネガル ダカール
飛行場実況気象(Metar)
観測時間11/27 08:00 GMT (11/27 08:00 UTC)
風向・風速北東 6m/s
視程10km以上
天気現象
なし
気温25℃
湿度47%
気圧1012hPa
METARGOOY 270800Z 04012KT CAVOK 25/13 Q1012
過去の天気等 Google飛行場航空写真 Wunderground天気予報

過去48時間のMETAR

飛行場予報(TAF)
発表時間: 11/27 05:00 GMT (11/27 05:00 UTC)
予報対象時間: 27日6時 GMT ~ 28日12時 GMT
風向・風速北東 5m/s
視程10km以上
なし
TAF GOOY 270500Z 2706/2812 04010KT CAVOK